Time;durP1;ratioP1;P1;durP2;ratioP2;P2;SDS_P1;SDS_P2;PMS_P1;PMS_P2;Temp;Humidity;BMP_temperature;BMP_pressure;BME280_temperature;BME280_humidity;BME280_pressure;Samples;Min_cycle;Max_cycle;Signal;HPM_P1;HPM_P2
2022/11/10 00:01:59;;;;;;;23.38;15.00;;;;;;;9.97;76.20;99865.22;4960324;29;20544;-92
2022/11/10 00:04:45;;;;;;;24.40;14.68;;;;;;;9.82;76.23;99841.66;4959973;29;20101;-92
2022/11/10 00:07:31;;;;;;;23.55;14.70;;;;;;;10.00;76.51;99882.91;4954704;29;20039;-90
2022/11/10 00:10:17;;;;;;;27.70;15.45;;;;;;;9.81;76.54;99844.69;4921410;29;20138;-90
2022/11/10 00:16:59;;;;;;;31.05;15.48;;;;;;;10.22;76.58;99912.38;4959904;22;20043;-90
2022/11/10 00:20:01;;;;;;;28.88;15.30;;;;;;;9.92;76.81;99859.81;4973036;28;20101;-91
2022/11/10 00:22:49;;;;;;;27.27;15.77;;;;;;;9.69;76.80;99819.72;4959455;28;20047;-91
2022/11/10 00:25:34;;;;;;;30.23;15.40;;;;;;;10.07;76.66;99869.72;4943116;28;20042;-92
2022/11/10 00:28:47;;;;;;;27.65;15.07;;;;;;;10.07;76.84;99883.38;4962677;28;20694;-90
2022/11/10 00:31:38;;;;;;;24.98;15.88;;;;;;;10.07;76.77;99880.63;4953211;29;20134;-91
2022/11/10 00:34:35;;;;;;;25.17;14.90;;;;;;;9.99;76.59;99873.91;5002817;22;20130;-90
2022/11/10 00:37:20;;;;;;;27.15;15.07;;;;;;;9.79;76.45;99842.22;4943141;28;20042;-89
2022/11/10 00:40:08;;;;;;;28.35;16.48;;;;;;;9.88;76.77;99858.78;4959315;28;20047;-91
2022/11/10 00:42:54;;;;;;;28.17;15.35;;;;;;;9.93;76.96;99855.16;4956570;28;20531;-89
2022/11/10 00:45:43;;;;;;;29.02;15.52;;;;;;;9.87;76.68;99849.78;4943857;28;20051;-91
2022/11/10 00:48:28;;;;;;;25.20;15.57;;;;;;;9.88;76.55;99856.06;4942351;28;20039;-91
2022/11/10 00:51:38;;;;;;;25.98;15.35;;;;;;;9.90;76.77;99867.50;4973803;28;20053;-91
2022/11/10 00:54:47;;;;;;;32.85;15.40;;;;;;;9.85;76.77;99851.97;4973982;28;20054;-89
2022/11/10 00:58:36;;;;;;;26.42;15.68;;;;;;;10.23;76.85;99903.06;4962513;28;20047;-90
2022/11/10 01:02:02;;;;;;;27.67;16.55;;;;;;;10.22;76.81;99893.25;4940177;28;20042;-90
2022/11/10 01:04:49;;;;;;;32.53;15.30;;;;;;;9.79;76.63;99828.59;4986498;22;21193;-92
2022/11/10 01:21:17;;;;;;;28.63;16.33;;;;;;;10.28;75.69;99872.97;6221633;22;2257662;-87
2022/11/10 01:24:01;;;;;;;27.15;16.80;;;;;;;10.20;76.05;99844.38;6235119;22;20038;-86
2022/11/10 01:30:02;;;;;;;28.92;15.57;;;;;;;9.67;75.84;99770.91;6255355;22;20022;-87
2022/11/10 01:32:47;;;;;;;29.63;15.70;;;;;;;10.14;75.90;99852.94;6235257;22;20019;-89
2022/11/10 01:35:33;;;;;;;27.70;15.95;;;;;;;10.34;75.70;99879.97;6236609;22;20022;-89
2022/11/10 01:38:18;;;;;;;28.90;16.05;;;;;;;10.26;75.75;99856.84;6262434;22;20081;-90
2022/11/10 01:41:04;;;;;;;27.02;15.27;;;;;;;10.21;75.50;99847.91;6236399;22;20058;-89
2022/11/10 01:43:50;;;;;;;27.50;15.57;;;;;;;10.31;75.88;99877.84;6236172;22;20104;-88
2022/11/10 01:46:34;;;;;;;34.67;15.73;;;;;;;10.04;75.92;99843.78;6236697;22;20015;-89
2022/11/10 01:49:23;;;;;;;34.17;16.65;;;;;;;10.14;76.28;99863.88;6236886;22;20042;-90
2022/11/10 01:52:13;;;;;;;26.70;16.55;;;;;;;10.03;75.95;99844.06;6237581;22;20065;-90
2022/11/10 01:54:58;;;;;;;28.70;16.10;;;;;;;10.16;76.21;99867.09;6250510;22;20023;-90
2022/11/10 01:57:43;;;;;;;27.77;16.65;;;;;;;10.15;76.18;99857.28;6236216;22;20030;-90
2022/11/10 02:00:28;;;;;;;30.92;15.88;;;;;;;9.88;76.14;99823.28;6236378;22;20023;-88
2022/11/10 02:03:37;;;;;;;26.80;15.77;;;;;;;9.89;75.98;99824.91;6236244;22;20034;-91
2022/11/10 02:06:26;;;;;;;27.80;15.77;;;;;;;9.99;75.83;99829.41;6284783;22;20015;-87
2022/11/10 02:09:11;;;;;;;26.88;15.38;;;;;;;10.02;76.03;99845.19;6257752;22;20023;-90
2022/11/10 02:11:56;;;;;;;28.80;16.65;;;;;;;9.94;76.24;99845.88;6236326;22;20070;-89
2022/11/10 02:14:41;;;;;;;30.23;15.68;;;;;;;10.02;76.50;99845.19;6236542;22;20019;-86
2022/11/10 02:17:26;;;;;;;29.53;16.27;;;;;;;9.97;76.35;99842.56;6236384;22;20038;-90
2022/11/10 02:20:14;;;;;;;30.80;16.63;;;;;;;10.18;76.36;99867.63;6233855;22;20512;-92
2022/11/10 02:23:10;;;;;;;31.92;17.38;;;;;;;9.91;76.33;99832.81;6229544;22;20380;-91
2022/11/10 02:25:55;;;;;;;27.65;16.40;;;;;;;9.98;76.29;99855.91;6278287;22;20016;-89
2022/11/10 02:28:40;;;;;;;34.55;15.85;;;;;;;9.89;76.27;99833.09;6278426;22;20020;-88
2022/11/10 02:31:25;;;;;;;29.25;15.40;;;;;;;10.00;76.51;99859.16;6251744;22;20019;-90
2022/11/10 02:34:10;;;;;;;28.20;16.02;;;;;;;9.89;76.20;99836.63;6255296;22;20019;-87
2022/11/10 02:36:54;;;;;;;26.65;16.45;;;;;;;9.90;76.34;99840.19;6250982;22;20046;-90
2022/11/10 02:39:39;;;;;;;29.13;16.50;;;;;;;10.10;76.73;99874.59;6250124;22;20030;-88
2022/11/10 02:42:23;;;;;;;27.75;16.08;;;;;;;9.83;76.44;99842.47;6228903;22;20110;-88
2022/11/10 02:45:08;;;;;;;27.70;16.05;;;;;;;9.88;76.71;99858.78;6230357;22;20461;-89
2022/11/10 02:47:53;;;;;;;27.48;15.05;;;;;;;9.82;76.63;99855.31;6235688;22;20051;-89
2022/11/10 02:50:38;;;;;;;27.33;14.73;;;;;;;9.85;77.05;99867.56;6230521;22;20102;-91
2022/11/10 02:53:23;;;;;;;32.25;16.05;;;;;;;9.75;77.24;99849.41;6255477;22;20019;-90
2022/11/10 02:56:08;;;;;;;32.25;16.45;;;;;;;9.95;76.99;99872.06;6229278;22;20101;-91
2022/11/10 02:58:52;;;;;;;26.83;15.05;;;;;;;9.60;76.83;99820.41;6254425;22;20395;-89
2022/11/10 03:01:37;;;;;;;26.27;15.63;;;;;;;9.62;76.97;99829.09;6252955;22;20023;-88
2022/11/10 03:04:22;;;;;;;29.52;16.33;;;;;;;9.78;76.68;99845.28;6231342;22;20093;-88
2022/11/10 03:07:06;;;;;;;30.85;16.27;;;;;;;9.74;76.82;99850.50;6229691;22;20016;-91
2022/11/10 03:09:51;;;;;;;27.70;15.43;;;;;;;9.82;76.88;99866.22;6230009;22;20161;-88
2022/11/10 03:12:35;;;;;;;28.70;15.75;;;;;;;9.79;76.69;99869.53;6260253;22;20019;-91
2022/11/10 03:15:21;;;;;;;30.02;16.27;;;;;;;9.75;76.63;99863.06;6230490;22;20468;-90
2022/11/10 03:18:05;;;;;;;32.78;17.42;;;;;;;9.75;77.00;99871.25;6228965;22;20081;-90
2022/11/10 03:20:50;;;;;;;26.45;15.68;;;;;;;9.85;76.71;99878.47;6254360;22;20145;-90
2022/11/10 03:23:36;;;;;;;33.17;17.15;;;;;;;9.63;76.75;99838.09;6229638;22;20079;-89
2022/11/10 03:26:21;;;;;;;31.70;15.63;;;;;;;9.74;76.59;99849.72;6250868;22;20403;-90
2022/11/10 03:29:05;;;;;;;29.88;17.15;;;;;;;9.68;76.88;99851.69;6277467;22;20023;-90
2022/11/10 03:31:49;;;;;;;28.58;16.52;;;;;;;9.74;76.70;99853.25;6277251;22;20019;-91
2022/11/10 03:34:34;;;;;;;23.60;14.40;;;;;;;9.92;76.51;99881.66;6278455;22;20016;-89
2022/11/10 03:37:18;;;;;;;28.52;15.75;;;;;;;9.91;76.58;99888.22;6229395;22;20047;-88
2022/11/10 03:40:04;;;;;;;27.17;16.48;;;;;;;9.76;76.48;99866.59;6254152;22;20507;-88
2022/11/10 03:42:48;;;;;;;28.95;16.17;;;;;;;9.92;76.32;99873.47;6254150;22;20023;-91
2022/11/10 03:45:33;;;;;;;27.45;16.88;;;;;;;9.70;76.38;99859.56;6250795;22;20024;-90
2022/11/10 03:48:17;;;;;;;28.20;16.48;;;;;;;9.74;76.45;99868.81;6227905;22;20016;-87
2022/11/10 03:51:03;;;;;;;29.20;16.38;;;;;;;9.81;76.36;99866.53;6228213;22;20043;-90
2022/11/10 03:53:47;;;;;;;30.10;15.55;;;;;;;9.68;76.29;99837.22;6250119;22;20054;-88
2022/11/10 03:56:32;;;;;;;30.27;17.02;;;;;;;9.68;75.99;99842.69;6253986;22;20016;-88
2022/11/10 03:59:16;;;;;;;28.73;16.48;;;;;;;9.50;75.83;99828.69;6255308;22;20023;-90
2022/11/10 04:02:01;;;;;;;32.95;17.25;;;;;;;9.69;76.15;99861.50;6228855;22;20069;-88
2022/11/10 04:10:59;;;;;;;30.25;16.08;;;;;;;9.67;75.73;99847.34;6251386;22;20512;-89
2022/11/10 04:16:48;;;;;;;25.75;15.85;;;;;;;9.73;75.73;99858.97;6250637;22;20020;-87
2022/11/10 04:19:33;;;;;;;27.65;15.90;;;;;;;9.68;75.44;99857.16;6251760;22;20162;-87
2022/11/10 04:23:25;;;;;;;28.95;15.93;;;;;;;9.60;75.23;99857.78;6249987;22;20042;-87
2022/11/10 04:25:11;;;;;;;36.10;17.40;;;;;;;9.69;75.54;99883.34;6276645;22;20050;-89
2022/11/10 04:27:55;;;;;;;25.40;15.27;;;;;;;9.56;75.71;99863.00;6257543;22;20026;-89
2022/11/10 04:30:43;;;;;;;29.13;15.82;;;;;;;9.60;75.50;99868.69;6260904;22;20031;-88
2022/11/10 04:33:27;;;;;;;30.30;16.58;;;;;;;9.33;75.55;99822.94;6231926;22;20373;-88
2022/11/10 04:36:16;;;;;;;26.10;15.80;;;;;;;9.54;75.64;99872.63;6228864;22;20019;-87
2022/11/10 04:39:05;;;;;;;31.05;17.45;;;;;;;9.06;75.39;99799.78;6229433;22;20016;-86
2022/11/10 04:41:50;;;;;;;28.15;15.95;;;;;;;9.27;75.54;99865.00;6248532;22;20015;-86
2022/11/10 04:44:35;;;;;;;31.08;16.20;;;;;;;9.27;75.46;99854.94;6248306;22;20026;-89
2022/11/10 04:47:19;;;;;;;27.92;16.40;;;;;;;9.00;75.56;99820.03;6249376;22;20106;-90
2022/11/10 04:50:05;;;;;;;31.05;17.45;;;;;;;9.39;75.21;99876.34;6276777;22;20141;-89
2022/11/10 04:52:49;;;;;;;31.65;16.67;;;;;;;9.20;75.30;99867.28;6228301;22;20015;-87
2022/11/10 04:55:37;;;;;;;29.63;16.20;;;;;;;9.22;74.88;99867.81;6250706;22;20461;-89
2022/11/10 04:58:22;;;;;;;28.30;16.92;;;;;;;9.20;75.12;99870.00;6228792;22;20016;-88
2022/11/10 05:01:07;;;;;;;31.83;15.60;;;;;;;9.16;74.80;99884.22;6251489;22;20019;-88
2022/11/10 05:03:52;;;;;;;27.70;15.75;;;;;;;8.95;74.96;99861.00;6250676;22;20015;-89
2022/11/10 05:06:37;;;;;;;28.77;14.45;;;;;;;9.08;74.80;99873.97;6251315;22;20114;-89
2022/11/10 05:09:21;;;;;;;30.45;16.13;;;;;;;9.29;74.59;99906.47;6251981;22;20020;-86
2022/11/10 05:12:06;;;;;;;27.25;15.10;;;;;;;9.11;74.22;99870.66;6250768;22;20106;-90
2022/11/10 05:14:50;;;;;;;33.83;15.43;;;;;;;9.03;74.48;99870.47;6281080;22;20360;-90
2022/11/10 05:17:35;;;;;;;33.58;15.18;;;;;;;9.26;74.34;99901.59;6235591;22;20050;-89
2022/11/10 05:20:22;;;;;;;27.65;15.38;;;;;;;8.94;74.30;99862.13;6251970;22;20026;-87
2022/11/10 05:26:16;;;;;;;23.27;14.40;;;;;;;9.11;74.54;99902.59;6252509;22;19922;-89
2022/11/10 05:29:00;;;;;;;26.88;13.90;;;;;;;8.81;74.77;99866.34;6230061;22;20054;-89
2022/11/10 05:31:45;;;;;;;29.02;13.00;;;;;;;8.92;74.82;99902.50;6230461;22;20019;-87
2022/11/10 05:34:29;;;;;;;24.73;14.13;;;;;;;8.81;75.17;99890.88;6231656;22;20024;-91
2022/11/10 05:37:14;;;;;;;23.38;13.40;;;;;;;8.50;75.09;99873.97;6252647;22;20015;-89
2022/11/10 05:39:59;;;;;;;34.58;14.63;;;;;;;8.58;75.29;99878.81;6251101;22;20024;-90
2022/11/10 05:42:53;;;;;;;23.38;14.13;;;;;;;8.61;75.13;99870.06;6231279;22;20023;-90
2022/11/10 05:45:38;;;;;;;26.38;13.50;;;;;;;8.50;75.43;99865.78;6278938;22;20011;-89
2022/11/10 05:48:23;;;;;;;29.27;13.38;;;;;;;8.54;75.32;99875.00;6230457;22;20015;-88
2022/11/10 05:51:07;;;;;;;25.73;12.77;;;;;;;8.47;75.59;99878.06;6247829;22;20516;-88
2022/11/10 05:53:52;;;;;;;27.70;12.77;;;;;;;8.40;75.81;99876.78;6229517;22;20594;-89
2022/11/10 05:56:36;;;;;;;26.67;13.48;;;;;;;8.31;75.68;99856.66;6255376;22;20024;-90
2022/11/10 05:59:21;;;;;;;26.08;12.95;;;;;;;8.47;75.61;99869.88;6231070;22;20012;-89
2022/11/10 06:02:05;;;;;;;25.20;12.43;;;;;;;8.63;75.28;99891.56;6232811;22;20050;-91
2022/11/10 06:04:50;;;;;;;34.47;13.98;;;;;;;8.45;75.64;99863.13;6232766;22;20102;-88
2022/11/10 06:07:37;;;;;;;23.23;13.20;;;;;;;8.71;75.26;99893.69;6233102;22;20069;-91
2022/11/10 06:10:22;;;;;;;23.52;13.13;;;;;;;8.41;75.39;99845.69;6250894;22;20020;-89
2022/11/10 06:13:07;;;;;;;28.40;13.40;;;;;;;8.51;75.51;99842.91;6231512;22;20019;-90
2022/11/10 06:15:52;;;;;;;26.42;13.15;;;;;;;8.68;75.14;99864.28;6229482;22;20065;-88
2022/11/10 06:18:36;;;;;;;30.30;13.75;;;;;;;8.77;74.88;99869.91;6278794;22;20118;-88
2022/11/10 06:21:21;;;;;;;25.00;12.55;;;;;;;8.78;74.71;99877.81;6251684;22;20453;-91
2022/11/10 06:24:06;;;;;;;25.50;14.23;;;;;;;8.97;74.42;99893.44;6230120;22;20066;-88
2022/11/10 06:26:50;;;;;;;29.92;12.43;;;;;;;8.72;74.43;99848.16;6250137;22;20016;-88
2022/11/10 06:29:35;;;;;;;23.48;12.10;;;;;;;8.89;74.02;99886.69;6228965;22;20019;-88
2022/11/10 06:32:20;;;;;;;24.05;13.13;;;;;;;8.83;74.26;99879.66;6228388;22;20472;-88
2022/11/10 06:35:05;;;;;;;26.60;12.23;;;;;;;8.87;74.31;99877.97;6229483;22;20015;-89
2022/11/10 06:37:57;;;;;;;25.42;12.38;;;;;;;8.86;74.30;99862.75;6252070;22;20015;-88
2022/11/10 06:40:42;;;;;;;22.15;11.80;;;;;;;8.62;74.13;99844.44;6250491;22;20112;-88
2022/11/10 06:43:27;;;;;;;24.77;11.07;;;;;;;8.87;73.49;99887.00;6231539;22;20019;-89
2022/11/10 06:46:11;;;;;;;25.45;12.18;;;;;;;8.91;73.53;99882.59;6250655;22;20023;-88
2022/11/10 06:48:56;;;;;;;26.25;11.93;;;;;;;8.85;73.51;99872.84;6228308;22;20460;-89
2022/11/10 06:51:40;;;;;;;31.05;12.52;;;;;;;8.75;73.58;99853.03;6254676;22;20015;-88
2022/11/10 06:54:25;;;;;;;23.80;12.32;;;;;;;8.83;73.25;99871.50;6228753;22;20111;-88
2022/11/10 06:57:09;;;;;;;26.92;12.40;;;;;;;8.72;73.24;99853.63;6228181;22;20022;-87
2022/11/10 06:59:54;;;;;;;24.70;12.27;;;;;;;8.72;73.09;99859.06;6228295;22;20342;-86
2022/11/10 07:02:38;;;;;;;32.45;13.20;;;;;;;8.75;73.36;99872.94;6227849;22;20015;-87
2022/11/10 07:08:15;;;;;;;27.67;12.05;;;;;;;8.65;74.14;99860.22;6260509;22;20457;-86
2022/11/10 07:11:00;;;;;;;22.08;10.60;;;;;;;8.63;73.51;99856.16;6230387;22;20020;-87
2022/11/10 07:13:45;;;;;;;27.40;12.40;;;;;;;8.66;73.64;99886.34;6277155;22;20474;-85
2022/11/10 07:16:29;;;;;;;32.20;12.80;;;;;;;8.69;73.90;99872.16;6249806;22;20020;-86
2022/11/10 07:19:13;;;;;;;25.92;11.27;;;;;;;8.67;73.58;99866.16;6227498;22;20069;-86
2022/11/10 07:21:58;;;;;;;27.00;14.23;;;;;;;8.87;73.68;99876.09;6249633;22;20073;-86
2022/11/10 07:24:43;;;;;;;22.70;12.45;;;;;;;8.87;73.47;99876.09;6276253;22;20442;-86
2022/11/10 07:27:29;;;;;;;22.50;12.15;;;;;;;8.64;73.16;99838.69;6249467;22;20019;-87
2022/11/10 07:30:14;;;;;;;25.63;13.05;;;;;;;8.74;72.75;99865.03;6276420;22;20037;-89
2022/11/10 07:33:13;;;;;;;29.50;11.75;;;;;;;9.03;73.30;99916.84;6227974;22;20015;-88
2022/11/10 07:36:02;;;;;;;30.45;12.63;;;;;;;8.80;73.33;99878.31;6249928;22;20019;-88
2022/11/10 07:38:49;;;;;;;28.38;11.80;;;;;;;9.02;73.08;99890.66;6249055;22;20077;-87
2022/11/10 07:41:33;;;;;;;23.20;11.38;;;;;;;8.86;72.75;99866.28;6277034;22;20042;-86
2022/11/10 07:44:18;;;;;;;24.60;12.60;;;;;;;8.75;72.85;99862.03;6277065;22;20019;-88
2022/11/10 07:47:02;;;;;;;26.63;12.30;;;;;;;8.96;72.57;99862.63;6253401;22;20019;-87
2022/11/10 07:49:47;;;;;;;26.73;12.70;;;;;;;9.16;72.43;99881.50;6276223;22;20042;-87
2022/11/10 07:52:31;;;;;;;24.80;12.77;;;;;;;9.31;71.62;99880.53;6253891;22;20024;-87
2022/11/10 07:55:16;;;;;;;26.70;13.30;;;;;;;9.43;71.91;99882.03;6254170;22;20477;-87
2022/11/10 07:58:00;;;;;;;21.63;11.77;;;;;;;9.43;70.80;99871.09;6254934;22;20523;-87
2022/11/10 08:00:46;;;;;;;29.17;12.85;;;;;;;9.78;71.25;99903.41;6227380;22;20115;-87
2022/11/10 08:03:30;;;;;;;28.98;12.73;;;;;;;9.67;70.87;99891.03;6276301;22;20016;-89
2022/11/10 08:06:15;;;;;;;26.98;13.27;;;;;;;9.26;70.63;99847.84;6253426;22;20539;-88
2022/11/10 08:09:02;;;;;;;24.08;12.82;;;;;;;9.33;70.99;99867.38;6253395;22;20026;-89
2022/11/10 08:11:48;;;;;;;32.08;12.98;;;;;;;9.53;71.82;99885.44;6227944;22;20015;-87
2022/11/10 08:14:33;;;;;;;25.48;13.15;;;;;;;9.57;70.73;99880.19;6276633;22;20050;-86
2022/11/10 08:17:18;;;;;;;25.92;12.45;;;;;;;9.55;70.67;99860.59;6249640;22;20343;-87
2022/11/10 08:20:03;;;;;;;27.85;12.82;;;;;;;9.79;70.18;99896.84;6253341;22;20038;-87
2022/11/10 08:22:48;;;;;;;30.42;12.50;;;;;;;9.76;69.68;99886.50;6255233;22;20027;-88
2022/11/10 08:25:34;;;;;;;21.98;12.18;;;;;;;9.87;70.45;99870.81;6257708;22;20094;-86
2022/11/10 08:28:19;;;;;;;25.48;12.50;;;;;;;9.91;69.50;99882.78;6232459;22;20019;-86
2022/11/10 08:31:04;;;;;;;28.17;13.40;;;;;;;10.05;69.23;99902.78;6253225;22;20023;-87
2022/11/10 08:33:49;;;;;;;47.35;14.35;;;;;;;9.83;69.31;99858.84;6248944;22;20019;-90
2022/11/10 08:36:36;;;;;;;29.08;13.82;;;;;;;10.09;69.40;99901.06;6253805;22;20023;-88
2022/11/10 08:39:20;;;;;;;28.00;14.32;;;;;;;9.91;69.07;99866.38;6228263;22;20016;-89
2022/11/10 08:42:05;;;;;;;32.22;14.00;;;;;;;10.15;69.25;99896.34;6227843;22;20019;-87
2022/11/10 08:44:50;;;;;;;31.00;13.68;;;;;;;10.08;68.98;99874.06;6249137;22;20397;-87
2022/11/10 08:47:35;;;;;;;36.60;15.00;;;;;;;10.16;69.28;99883.50;6227642;22;20020;-90
2022/11/10 08:50:19;;;;;;;26.95;13.60;;;;;;;10.22;69.23;99874.13;6254100;22;20026;-89
2022/11/10 08:53:10;;;;;;;30.42;13.95;;;;;;;10.32;68.59;99901.31;6276842;22;20054;-86
2022/11/10 08:55:58;;;;;;;30.08;14.40;;;;;;;10.27;68.70;99901.41;6276584;22;20012;-87
2022/11/10 08:58:43;;;;;;;32.33;14.00;;;;;;;10.14;68.59;99855.69;6253563;22;20027;-87
2022/11/10 09:01:27;;;;;;;27.08;14.05;;;;;;;10.40;68.80;99897.94;6205852;22;20110;-87
2022/11/10 09:04:14;;;;;;;38.95;14.43;;;;;;;10.36;68.65;99872.28;6254747;22;20086;-88
2022/11/10 09:06:59;;;;;;;34.05;15.18;;;;;;;10.53;68.41;99880.75;6230419;22;20026;-88
2022/11/10 09:09:44;;;;;;;38.03;14.75;;;;;;;10.60;67.82;99874.13;6228177;22;20097;-88
2022/11/10 09:12:29;;;;;;;28.60;13.35;;;;;;;10.44;67.12;99840.75;6249501;22;20045;-89
2022/11/10 09:15:14;;;;;;;29.27;14.38;;;;;;;10.64;67.24;99886.06;6228222;22;20016;-87
2022/11/10 09:18:04;;;;;;;27.50;13.80;;;;;;;10.69;67.35;99883.22;6228898;22;20024;-88
2022/11/10 09:20:49;;;;;;;23.95;14.10;;;;;;;10.51;67.39;99850.16;6228458;22;20019;-88
2022/11/10 09:23:34;;;;;;;33.40;15.10;;;;;;;10.60;67.01;99874.13;6229945;22;20016;-88
2022/11/10 09:26:19;;;;;;;31.48;15.98;;;;;;;10.66;67.30;99876.47;6228003;22;20043;-87
2022/11/10 09:29:03;;;;;;;34.33;15.80;;;;;;;10.77;67.36;99877.09;6228794;22;20043;-88
2022/11/10 09:31:48;;;;;;;31.10;15.88;;;;;;;10.73;66.51;99856.94;6230049;22;20023;-88
2022/11/10 09:34:33;;;;;;;33.08;15.18;;;;;;;10.97;66.63;99886.84;6230333;22;20016;-87
2022/11/10 09:37:17;;;;;;;38.83;16.48;;;;;;;10.89;66.09;99860.97;6230065;22;20020;-88
2022/11/10 09:40:01;;;;;;;36.03;16.20;;;;;;;10.96;66.04;99872.38;6231356;22;20026;-87
2022/11/10 09:42:47;;;;;;;24.73;14.63;;;;;;;11.11;66.11;99873.19;6232368;22;20046;-88
2022/11/10 09:45:38;;;;;;;35.45;16.58;;;;;;;11.00;65.92;99876.13;6267424;22;20091;-87
2022/11/10 09:48:27;;;;;;;31.90;14.23;;;;;;;11.22;66.33;99872.66;6251908;22;20095;-90
2022/11/10 09:51:20;;;;;;;35.22;15.93;;;;;;;11.38;65.60;99864.97;6229764;22;20016;-88
2022/11/10 09:54:36;;;;;;;26.38;14.32;;;;;;;11.38;65.20;99840.34;6229875;22;20018;-88
2022/11/10 09:57:23;;;;;;;37.53;17.00;;;;;;;11.63;64.88;99857.38;6251668;22;20015;-89
2022/11/10 10:00:14;;;;;;;35.17;16.02;;;;;;;11.74;64.23;99856.00;6231687;22;20488;-90
2022/11/10 10:03:03;;;;;;;26.00;15.27;;;;;;;11.99;63.80;99868.38;6233434;22;20027;-89
2022/11/10 10:06:07;;;;;;;35.28;14.52;;;;;;;11.88;63.52;99856.81;6255028;22;20086;-89
2022/11/10 10:09:10;;;;;;;32.92;15.13;;;;;;;12.08;63.57;99865.69;6253170;22;20022;-90
2022/11/10 10:12:16;;;;;;;24.73;14.63;;;;;;;12.03;62.86;99869.38;6251624;22;20106;-89
2022/11/10 10:15:22;;;;;;;;;;;;;;;12.06;63.33;99874.25;6255451;22;20076;-88
2022/11/10 10:18:17;;;;;;;;;;;;;;;11.99;63.45;99871.94;6230544;22;19915;-87
2022/11/10 10:21:23;;;;;;;28.15;14.82;;;;;;;12.04;63.60;99870.19;6229392;22;19915;-88
2022/11/10 10:24:15;;;;;;;31.23;15.13;;;;;;;11.95;63.47;99848.16;6250902;22;20020;-86
2022/11/10 10:27:05;;;;;;;32.42;15.48;;;;;;;11.93;63.90;99850.44;6253624;22;20102;-88
2022/11/10 10:29:52;;;;;;;29.15;15.23;;;;;;;11.96;63.25;99836.91;6252418;22;20095;-88
2022/11/10 10:32:37;;;;;;;;;;;;;;;12.20;63.13;99869.50;6252428;22;20080;-88
2022/11/10 10:35:22;;;;;;;24.08;13.95;;;;;;;12.05;63.11;99860.84;6278877;22;20435;-88
2022/11/10 10:38:18;;;;;;;31.60;14.70;;;;;;;11.98;63.08;99842.88;6250047;22;20035;-89
2022/11/10 10:41:14;;;;;;;29.95;16.00;;;;;;;11.99;63.34;99869.19;6250312;22;20069;-88
2022/11/10 10:44:12;;;;;;;33.72;16.75;;;;;;;11.71;63.61;99838.25;6229520;22;20026;-89
2022/11/10 10:47:01;;;;;;;29.50;15.07;;;;;;;11.88;63.92;99854.06;6229140;22;20020;-88
2022/11/10 10:49:46;;;;;;;33.13;15.43;;;;;;;11.78;63.98;99848.78;6228518;22;20439;-88
2022/11/10 10:52:31;;;;;;;30.02;16.13;;;;;;;11.76;63.64;99838.16;6228993;22;20020;-87
2022/11/10 10:55:15;;;;;;;33.00;14.93;;;;;;;11.75;64.00;99850.25;6251509;22;20418;-87
2022/11/10 10:58:25;;;;;;;42.25;16.42;;;;;;;11.87;64.42;99873.56;6229218;22;20020;-87
2022/11/10 11:01:16;;;;;;;30.90;15.77;;;;;;;11.92;64.04;99873.44;6253020;22;20064;-88
2022/11/10 11:04:24;;;;;;;33.53;17.02;;;;;;;11.94;64.17;99874.75;6267002;22;20062;-87
2022/11/10 11:07:23;;;;;;;32.22;15.75;;;;;;;11.73;64.26;99827.00;6250769;22;20081;-89
2022/11/10 11:10:23;;;;;;;31.70;15.98;;;;;;;11.98;64.28;99855.78;6228876;22;20528;-87
2022/11/10 11:13:22;;;;;;;32.78;15.13;;;;;;;11.91;64.23;99860.88;6255611;22;20073;-88
2022/11/10 11:16:11;;;;;;;35.25;16.77;;;;;;;11.81;64.46;99839.16;6250465;22;20015;-87
2022/11/10 11:18:56;;;;;;;31.95;15.40;;;;;;;11.99;64.08;99852.75;6254415;22;20464;-87
2022/11/10 11:22:14;;;;;;;33.72;14.57;;;;;;;11.83;63.83;99812.28;6254001;22;20087;-90
2022/11/10 11:25:31;;;;;;;34.88;15.35;;;;;;;12.03;64.04;99857.59;6200921;23;20024;-87
2022/11/10 11:29:00;;;;;;;37.80;16.73;;;;;;;11.93;64.32;99856.72;6215375;23;20443;-88
2022/11/10 11:32:10;;;;;;;32.65;14.95;;;;;;;11.77;64.80;99836.22;6218029;23;20108;-88
2022/11/10 11:35:38;;;;;;;34.47;15.52;;;;;;;11.77;64.64;99849.91;6192997;23;20403;-88
2022/11/10 11:38:57;;;;;;;32.83;16.83;;;;;;;11.53;64.75;99826.34;6214180;23;20094;-88
2022/11/10 11:41:57;;;;;;;37.08;15.95;;;;;;;11.38;64.59;99802.00;6216083;23;20516;-89
2022/11/10 11:44:59;;;;;;;33.05;16.13;;;;;;;11.39;64.93;99808.28;6194284;23;20023;-89
2022/11/10 11:48:01;;;;;;;31.00;15.80;;;;;;;11.70;65.07;99866.78;6193233;23;20048;-88
2022/11/10 11:50:58;;;;;;;33.55;16.55;;;;;;;11.54;65.24;99860.00;6215533;23;20095;-89
2022/11/10 11:54:23;;;;;;;27.20;14.57;;;;;;;11.68;65.24;99879.16;6193659;23;20024;-89
2022/11/10 11:57:40;;;;;;;40.40;18.02;;;;;;;11.57;65.29;99853.91;6215172;23;20108;-87
2022/11/10 12:00:25;;;;;;;32.35;17.85;;;;;;;11.48;65.45;99831.09;6213420;23;20485;-88
2022/11/10 12:03:41;;;;;;;28.60;15.80;;;;;;;11.67;65.83;99870.13;6193956;23;20451;-89
2022/11/10 12:06:44;;;;;;;;;;;;;;;11.80;65.86;99865.75;6195890;23;20076;-88
2022/11/10 12:10:02;;;;;;;32.80;15.30;;;;;;;11.76;65.13;99860.06;6193595;23;19943;-88
2022/11/10 12:13:08;;;;;;;42.35;17.10;;;;;;;11.67;65.33;99864.66;6162998;23;20450;-89
2022/11/10 12:15:56;;;;;;;37.55;17.35;;;;;;;11.64;65.75;99868.00;6161854;23;20511;-88
2022/11/10 12:19:23;;;;;;;33.53;16.73;;;;;;;11.55;65.78;99863.53;6157380;23;20017;-88
2022/11/10 12:22:25;;;;;;;32.30;16.45;;;;;;;11.51;65.62;99855.13;6133821;23;20160;-86
2022/11/10 12:25:45;;;;;;;32.83;16.10;;;;;;;11.37;66.24;99859.81;6160441;23;20044;-87
2022/11/10 12:28:38;;;;;;;32.83;15.40;;;;;;;11.25;66.73;99852.09;6156824;23;20023;-87
2022/11/10 12:31:27;;;;;;;34.75;16.92;;;;;;;11.17;66.53;99863.75;6159427;23;20027;-86
2022/11/10 12:34:37;;;;;;;29.23;14.90;;;;;;;11.08;67.09;99862.84;6160001;23;20037;-86
2022/11/10 12:37:31;;;;;;;31.75;15.98;;;;;;;11.03;66.98;99869.22;6156283;23;20104;-86
2022/11/10 12:40:21;;;;;;;35.65;17.92;;;;;;;10.99;67.22;99874.50;6155898;23;20097;-87
2022/11/10 12:43:17;;;;;;;33.00;17.10;;;;;;;10.88;67.03;99877.72;6161613;23;20013;-87
2022/11/10 12:46:11;;;;;;;37.42;17.27;;;;;;;10.88;67.52;99867.56;6160991;23;20020;-86
2022/11/10 12:49:32;;;;;;;32.22;17.13;;;;;;;11.11;67.50;99897.81;6228438;23;20881;-86
2022/11/10 12:52:26;;;;;;;40.20;17.58;;;;;;;11.09;67.57;99900.03;6237265;23;20350;-87
2022/11/10 12:55:14;;;;;;;32.97;17.00;;;;;;;10.93;67.73;99883.91;6222287;23;20458;-87
2022/11/10 12:58:00;;;;;;;34.88;18.05;;;;;;;10.81;67.65;99884.38;6243100;23;20115;-88
2022/11/10 13:01:00;;;;;;;39.47;18.35;;;;;;;10.55;67.95;99856.66;6242341;23;20107;-88
2022/11/10 13:03:54;;;;;;;43.05;18.50;;;;;;;10.90;68.19;99909.13;6222274;23;20038;-90
2022/11/10 13:06:48;;;;;;;37.00;18.05;;;;;;;10.80;68.20;99909.31;6220990;23;20020;-87
2022/11/10 13:09:37;;;;;;;39.22;19.05;;;;;;;10.67;68.29;99897.22;6244623;22;20024;-88
2022/11/10 13:12:23;;;;;;;37.67;18.08;;;;;;;10.70;68.83;99918.50;6244704;22;20400;-88
2022/11/10 13:15:34;;;;;;;40.35;18.60;;;;;;;10.55;69.07;99900.41;6222041;23;20030;-88
2022/11/10 13:18:30;;;;;;;37.58;18.75;;;;;;;10.55;69.13;99889.47;6243789;22;20020;-89
2022/11/10 13:21:48;;;;;;;45.85;18.80;;;;;;;10.63;69.33;99914.50;6242515;23;20016;-87
2022/11/10 13:24:35;;;;;;;35.75;17.83;;;;;;;10.61;69.49;99920.28;6126928;23;20495;-88
2022/11/10 13:27:32;;;;;;;35.75;18.08;;;;;;;10.49;70.11;99915.25;6127013;23;20025;-86
2022/11/10 13:30:55;;;;;;;44.55;19.35;;;;;;;10.43;70.18;99938.34;6150875;23;20529;-87
2022/11/10 13:33:39;;;;;;;38.85;18.75;;;;;;;10.23;70.43;99911.25;5960550;23;20087;-87
2022/11/10 13:36:37;;;;;;;42.28;18.95;;;;;;;10.24;70.62;99918.38;5961479;23;20085;-87
2022/11/10 13:39:25;;;;;;;37.25;18.80;;;;;;;10.25;70.47;99922.72;6094462;23;20095;-86
2022/11/10 13:42:10;;;;;;;45.13;21.85;;;;;;;10.37;70.68;99942.25;6119569;23;20032;-87
2022/11/10 13:45:40;;;;;;;42.17;20.30;;;;;;;10.11;70.63;99901.59;6103026;23;20041;-86